Portada
METAR-TAF:

METAR-TAF

Aeroports :

Irkutsk, Rússia

latitud: 52-16N, longitud: 104-19E, altitud: 513 m

Observació

L'informe es va fer fa 40 minuts, a les 03:30 UTC
Vent 6 kt del Oest/Nord-Oest, variant entre Sud/Sud-Oest i Nord/Nord-Oest
Temperatura 2°C
Humitat 60%
Pressió 1013 hPa
Visibilitat 10 km o més
Núvols disperses a una alçada de 3200 ft, Cumulonimbus.

METAR: UIII 290330Z 29003MPS 210V340 9999 SCT032CB 02/M05 Q1013 R30/60D NOSIG RMK QFE715/0954

Hora: 12:10 (04:10 UTC)

Pronòstic

L'informe es va fer fa 2 hores i 10 minuts, a les 02:00 UTC
Pronòstic vàlid del 29 a les 03 UTC al 30 a les 03 UTC
Vent 8 kt del Oest/Nord-Oest amb ràfegues de 17 kt
Visibilitat 10 km o més
Cel ennuvolat a una alçada de 1200 ft, Cumulonimbus.
Temporalment
l' 29 a les 03 UTC al 29 a les 21 UTC
Vent 17 kt del Nord-Oest amb ràfegues de 27 kt
Visibilitat: 1200 m
xàfecs de neu

TAF: UIII 290200Z 2903/3003 30004G09MPS 9999 BKN012CB TEMPO 2903/2921 32009G14MPS 1200 SHSN

Observacions i pronòstics meteorològics de més de 4000 aeroports (METAR i TAF).

Les estacions disponibles són els punts grocs i vermells al mapa.

Posi el ratolí al punt desitjat per veure el nom de l'estació.

Feu clic per veure les observacions i els pronòstics meteorològics.

Per canviar el mapa: feu clic els botons verds amb una creu de color negre per apropar; al botó verd amb un guió per allunyar la imatge; o en les fletxes verdes per a mapes adjacents.


METAR-TAF: